Flight Track Log - Related Links

Times and Time Zones

All times are in EST time to prevent confusion due to time zone crossing. See the JIA4689 flight status page for this flight to view local times or setup timezone preferences in your user account.

Time Position Orientation Groundspeed Altitude Reporting Facility
EST Latitude Longitude Course Direction KTS MPH feet Rate Location/Type
Tue 05:26:06 PM 41.1000 -73.7500 234° Southwest 183 211 3,000  Level New York TRACON
Tue 05:27:06 PM 41.0667 -73.8333 242° Southwest 223 257 6,500 2,750 Climbing New York TRACON
Tue 05:28:00 PM 40.9221 -73.9578 239° Southwest  Level FlightAware Approximate
Tue 05:28:06 PM 41.0500 -73.9167 255° West 233 268 8,500  Level New York TRACON
Tue 05:29:00 PM 40.8782 -74.0529 239° Southwest  Level FlightAware Approximate
Tue 05:29:07 PM 41.0000 -73.9667 217° Southwest 264 304 11,800  Level New York TRACON
Tue 05:30:00 PM 40.8343 -74.1479 239° Southwest  Level FlightAware Approximate
Tue 05:31:00 PM 40.7853 -74.2383 234° Southwest  Level FlightAware Approximate
Tue 05:31:14 PM 40.8614 -74.0744 210° Southwest 283 326 15,000  Level New York Center
Tue 05:32:14 PM 40.8194 -74.1575 236° Southwest 306 352 15,000  Level New York Center
Tue 05:33:14 PM 40.7706 -74.2564 237° Southwest 306 352 15,000  Level New York Center
Tue 05:34:14 PM 40.7328 -74.3367 238° Southwest 300 345 15,000 750 Level New York Center
Tue 05:35:14 PM 40.6839 -74.4353 237° Southwest 300 345 16,500 1,650 Climbing New York Center
Tue 05:36:14 PM 40.6369 -74.5342 238° Southwest 305 351 18,300 1,650 Climbing New York Center
Tue 05:37:14 PM 40.5947 -74.6192 237° Southwest 311 358 19,800 850 Climbing New York Center
Tue 05:38:14 PM 40.5456 -74.7175 237° Southwest 326 375 20,000 100 Climbing New York Center
Tue 05:39:14 PM 40.4964 -74.8183 237° Southwest 326 375 20,000  Level New York Center
Tue 05:40:14 PM 40.4469 -74.9219 238° Southwest 331 381 20,000  Level New York Center
Tue 05:41:14 PM 40.3894 -75.0164 231° Southwest 331 381 20,000  Level New York Center
Tue 05:42:14 PM 40.3278 -75.1053 228° Southwest 336 387 20,000  Level New York Center
Tue 05:43:14 PM 40.2639 -75.1964 227° Southwest 341 392 20,000  Level New York Center
Tue 05:44:14 PM 40.2000 -75.2875 227° Southwest 346 398 20,000  Level New York Center
Tue 05:45:14 PM 40.1383 -75.3731 227° Southwest 346 398 20,000  Level New York Center
Tue 05:46:14 PM 40.0658 -75.4714 226° Southwest 341 392 20,000  Level New York Center
Tue 05:47:14 PM 40.0017 -75.5592 226° Southwest 341 392 20,000  Level New York Center
Tue 05:48:14 PM 39.9378 -75.6469 227° Southwest 336 387 20,000  Level New York Center
Tue 05:49:14 PM 39.8836 -75.7431 234° Southwest 336 387 20,000  Level New York Center
Tue 05:50:14 PM 39.8314 -75.8422 236° Southwest 336 387 20,000  Level New York Center
Tue 05:51:14 PM 39.7814 -75.9414 237° Southwest 336 387 20,000 -550 Level New York Center
Tue 05:52:14 PM 39.7269 -76.0372 234° Southwest 336 387 18,900 -1,100 Descending New York Center
Tue 05:53:14 PM 39.6769 -76.1306 235° Southwest 336 387 17,800 -1,350 Descending New York Center
Tue 05:54:14 PM 39.6267 -76.2264 236° Southwest 331 381 16,200 -1,632 Descending New York Center
Tue 05:55:19 PM 39.5667 -76.3167 229° Southwest 324 373 14,400 -1,632 Descending Potomac TRACON
Tue 05:56:19 PM 39.4833 -76.3833 212° Southwest 316 364 12,800 -1,143 Descending Potomac TRACON
Tue 05:57:25 PM 39.4167 -76.4500 218° Southwest 309 356 12,000 -381 Descending Potomac TRACON
Tue 05:58:25 PM 39.3333 -76.5167 212° Southwest 312 359 12,000  Level Potomac TRACON
Tue 05:59:20 PM 39.2667 -76.5667 210° Southwest 310 357 12,000 -730 Level Potomac TRACON
Tue 06:00:20 PM 39.2000 -76.6333 218° Southwest 291 335 10,600 -1,000 Descending Potomac TRACON
Tue 06:01:20 PM 39.1333 -76.7000 218° Southwest 266 306 10,000 -400 Descending Potomac TRACON
Tue 06:02:20 PM 39.0833 -76.7500 218° Southwest 250 288 9,800 -850 Descending Potomac TRACON
Tue 06:03:20 PM 39.0333 -76.8167 226° Southwest 255 293 8,300 -1,500 Descending Potomac TRACON
Tue 06:04:20 PM 38.9833 -76.8833 226° Southwest 251 289 6,800 -1,211 Descending Potomac TRACON
Tue 06:05:14 PM 38.9333 -76.9333 218° Southwest 246 283 6,000 -421 Descending Potomac TRACON
Tue 06:06:14 PM 38.8667 -76.9500 191° South 221 254 6,000 -650 Level Potomac TRACON
Tue 06:07:14 PM 38.8167 -76.9500 180° South 221 254 4,700 -1,053 Descending Potomac TRACON
Tue 06:08:08 PM 38.7667 -76.9500 180° South 217 250 4,000 -842 Descending Potomac TRACON
Tue 06:09:08 PM 38.7000 -76.9500 180° South 212 244 3,100 -750 Descending Potomac TRACON
Tue 06:10:08 PM 38.7000 -77.0000 270° West 180 207 2,500 -450 Descending Potomac TRACON
Tue 06:11:08 PM 38.7333 -77.0333 322° Northwest 178 205 2,200 -600 Descending Potomac TRACON
Tue 06:12:08 PM 38.7833 -77.0333 360° North 156 180 1,300 -857 Descending Potomac TRACON
Tue 06:13:14 PM 38.8333 -77.0333 360° North 130 150 400 -818 Descending Potomac TRACON

Login

Don't have an account? Register now (free) for customized features, flight alerts, and more!